Terminal Aerodrome Forecast
Issued by NWS

Home | Current Version | Previous Version | Text Only | Print | Product List | Glossary On
Versions: 1 2 3 4 5 6 7 8 9 10 11 12 13 14 15 16 17 18 19 20 21 22 23 24
000
FTUS43 KABR 070757 AAA
TAFATY
TAF AMD
KATY 070757Z 0708/0806 15013KT P6SM OVC070
      TEMPO 0708/0712 P6SM -SHRA BKN025
     FM071200 19008KT 5SM BR OVC015
     FM071400 23009KT P6SM OVC015
     FM071800 32015G23KT P6SM OVC025
     FM080400 34008KT P6SM OVC035=

USA.gov is the U.S. government's official web portal to all federal, state and local government web resources and services.